Time;durP1;ratioP1;P1;durP2;ratioP2;P2;SDS_P1;SDS_P2;PMS_P1;PMS_P2;Temp;Humidity;BMP_temperature;BMP_pressure;BME280_temperature;BME280_humidity;BME280_pressure;Samples;Min_cycle;Max_cycle;Signal;HPM_P1;HPM_P2
2023/06/01 00:00:38;;;;;;;13.73;4.45;;;11.70;99.90;;;;;;5059291;28;20152;-75
2023/06/01 00:03:04;;;;;;;13.60;5.22;;;11.70;99.90;;;;;;5053189;28;20090;-76
2023/06/01 00:05:29;;;;;;;16.45;5.05;;;12.00;99.90;;;;;;5041766;28;20053;-76
2023/06/01 00:07:55;;;;;;;13.93;4.75;;;11.70;99.90;;;;;;5059893;28;20799;-75
2023/06/01 00:10:21;;;;;;;11.20;4.10;;;11.70;99.90;;;;;;5063241;28;20036;-75
2023/06/01 00:12:46;;;;;;;15.32;4.80;;;11.70;99.90;;;;;;5051300;28;20370;-75
2023/06/01 00:15:12;;;;;;;12.55;4.90;;;11.80;99.90;;;;;;5061468;28;20044;-75
2023/06/01 00:17:38;;;;;;;12.32;4.28;;;11.60;99.90;;;;;;5058254;28;20035;-77
2023/06/01 00:20:08;;;;;;;16.02;4.88;;;11.60;99.90;;;;;;5062361;28;20048;-74
2023/06/01 00:22:38;;;;;;;23.33;4.40;;;11.60;99.90;;;;;;5055328;28;20049;-73
2023/06/01 00:25:07;;;;;;;14.05;4.28;;;11.60;99.90;;;;;;5056306;28;20051;-76
2023/06/01 00:27:33;;;;;;;10.82;3.78;;;11.60;99.90;;;;;;5050448;28;20069;-74
2023/06/01 00:29:58;;;;;;;13.02;4.30;;;11.90;99.90;;;;;;5057870;28;20082;-75
2023/06/01 00:32:24;;;;;;;14.43;4.22;;;11.60;99.90;;;;;;5059728;28;20049;-74
2023/06/01 00:34:50;;;;;;;12.43;4.13;;;11.60;99.90;;;;;;5058068;28;20496;-74
2023/06/01 00:37:15;;;;;;;13.73;5.00;;;11.70;99.90;;;;;;5059762;28;20107;-72
2023/06/01 00:39:41;;;;;;;17.50;4.68;;;11.70;99.90;;;;;;5061204;28;20547;-75
2023/06/01 00:42:06;;;;;;;11.18;4.32;;;11.60;99.90;;;;;;5062415;28;20113;-74
2023/06/01 00:44:32;;;;;;;11.60;4.05;;;11.60;99.90;;;;;;5053114;28;20472;-74
2023/06/01 00:46:59;;;;;;;15.07;4.80;;;11.60;99.90;;;;;;5061072;28;20532;-74
2023/06/01 00:49:25;;;;;;;12.45;4.40;;;11.60;99.90;;;;;;5060864;28;20044;-74
2023/06/01 00:51:52;;;;;;;11.57;4.68;;;11.60;99.90;;;;;;5058190;28;20128;-74
2023/06/01 00:54:18;;;;;;;15.75;4.22;;;11.60;99.90;;;;;;5062661;28;20072;-74
2023/06/01 00:56:44;;;;;;;23.45;4.57;;;11.70;99.90;;;;;;5063647;28;20045;-75
2023/06/01 00:59:11;;;;;;;12.05;4.13;;;11.50;99.90;;;;;;5065196;28;20483;-75
2023/06/01 01:01:37;;;;;;;12.77;4.75;;;11.50;99.90;;;;;;5062826;28;20158;-74
2023/06/01 01:04:02;;;;;;;13.90;4.32;;;11.50;99.90;;;;;;5057678;28;20147;-75
2023/06/01 01:06:51;;;;;;;18.15;4.78;;;11.50;99.90;;;;;;5056368;28;20105;-75
2023/06/01 01:09:26;;;;;;;13.82;4.30;;;11.50;99.90;;;;;;5051014;28;20044;-75
2023/06/01 01:12:02;;;;;;;13.43;4.53;;;11.50;99.90;;;;;;5058483;28;20123;-74
2023/06/01 01:14:45;;;;;;;16.55;5.13;;;11.50;99.90;;;;;;5060190;28;20351;-74
2023/06/01 01:17:24;;;;;;;13.70;4.25;;;11.50;99.90;;;;;;5054102;28;20394;-74
2023/06/01 01:19:59;;;;;;;13.15;4.68;;;11.70;99.90;;;;;;5040896;28;20044;-73
2023/06/01 01:22:38;;;;;;;10.60;4.45;;;11.40;99.90;;;;;;5048677;28;20049;-74
2023/06/01 01:25:26;;;;;;;13.02;4.75;;;11.40;99.90;;;;;;5058744;28;20041;-73
2023/06/01 01:27:58;;;;;;;11.70;4.72;;;11.40;99.90;;;;;;5059553;28;20063;-73
2023/06/01 01:30:27;;;;;;;12.73;4.70;;;11.40;99.90;;;;;;5057797;28;20655;-74
2023/06/01 01:32:55;;;;;;;9.80;4.43;;;11.40;99.90;;;;;;5056516;28;20049;-74
2023/06/01 01:35:23;;;;;;;11.52;4.60;;;11.40;99.90;;;;;;5059191;28;20053;-74
2023/06/01 01:37:53;;;;;;;17.42;4.25;;;11.40;99.90;;;;;;5055320;28;20085;-72
2023/06/01 01:40:19;;;;;;;15.77;4.80;;;11.40;99.90;;;;;;5059877;28;20118;-74
2023/06/01 01:42:45;;;;;;;10.20;3.75;;;11.40;99.90;;;;;;5057952;28;20041;-74
2023/06/01 01:45:11;;;;;;;12.05;4.85;;;11.40;99.90;;;;;;5056949;28;20451;-74
2023/06/01 01:47:49;;;;;;;14.52;5.00;;;11.30;99.90;;;;;;5058906;28;20396;-74
2023/06/01 01:50:18;;;;;;;14.13;4.68;;;11.30;99.90;;;;;;5061329;28;20051;-73
2023/06/01 01:52:46;;;;;;;9.05;4.05;;;11.30;99.90;;;;;;5057742;28;20052;-74
2023/06/01 01:55:15;;;;;;;18.05;4.43;;;11.60;99.90;;;;;;5057946;28;20052;-74
2023/06/01 01:57:41;;;;;;;9.38;4.45;;;11.30;99.90;;;;;;5057215;28;20053;-73
2023/06/01 02:00:08;;;;;;;10.65;3.97;;;11.30;99.90;;;;;;5029280;28;20064;-75
2023/06/01 02:02:34;;;;;;;8.35;3.67;;;11.30;99.90;;;;;;5055489;28;20136;-74
2023/06/01 02:05:01;;;;;;;14.60;4.57;;;11.30;99.90;;;;;;5066134;28;20060;-74
2023/06/01 02:07:27;;;;;;;12.38;3.78;;;11.30;99.90;;;;;;5067731;28;20086;-75
2023/06/01 02:09:53;;;;;;;13.02;3.22;;;11.30;99.90;;;;;;5060598;28;20041;-74
2023/06/01 02:12:18;;;;;;;10.50;3.25;;;11.30;99.90;;;;;;5059665;28;20047;-74
2023/06/01 02:14:44;;;;;;;11.07;3.10;;;11.50;99.90;;;;;;5067418;28;20046;-75
2023/06/01 02:17:10;;;;;;;9.35;2.90;;;11.30;99.90;;;;;;5054211;28;20068;-74
2023/06/01 02:19:35;;;;;;;8.05;2.85;;;11.50;99.90;;;;;;5058303;28;20041;-73
2023/06/01 02:22:01;;;;;;;17.00;3.60;;;11.30;99.90;;;;;;5060641;28;20048;-74
2023/06/01 02:24:27;;;;;;;13.73;3.90;;;11.30;99.90;;;;;;5055132;28;20396;-73
2023/06/01 02:26:53;;;;;;;8.75;3.03;;;11.30;99.90;;;;;;5059465;28;20480;-74
2023/06/01 02:29:22;;;;;;;7.35;3.00;;;11.30;99.90;;;;;;5064406;28;20056;-75
2023/06/01 02:31:50;;;;;;;11.82;3.58;;;11.40;99.90;;;;;;5063971;28;20033;-75
2023/06/01 02:34:16;;;;;;;10.55;2.92;;;11.30;99.90;;;;;;5063221;28;20118;-74
2023/06/01 02:36:42;;;;;;;8.48;2.80;;;11.30;99.90;;;;;;5049374;28;20403;-73
2023/06/01 02:39:08;;;;;;;7.72;2.88;;;11.30;99.90;;;;;;5066338;28;20063;-75
2023/06/01 02:41:34;;;;;;;11.80;2.70;;;11.20;99.90;;;;;;5051950;28;20037;-75
2023/06/01 02:44:00;;;;;;;13.38;3.92;;;11.30;99.90;;;;;;5067239;28;20123;-75
2023/06/01 02:46:25;;;;;;;9.45;2.92;;;11.30;99.90;;;;;;5053357;28;20091;-74
2023/06/01 02:48:52;;;;;;;9.43;3.10;;;11.30;99.90;;;;;;5061337;28;20048;-75
2023/06/01 02:51:21;;;;;;;10.77;2.80;;;11.70;99.90;;;;;;5059312;28;20036;-75
2023/06/01 02:53:47;;;;;;;11.13;2.85;;;11.20;99.90;;;;;;5062349;28;20053;-74
2023/06/01 02:56:13;;;;;;;14.05;3.35;;;11.20;99.90;;;;;;5057837;28;20052;-73
2023/06/01 02:58:38;;;;;;;9.27;3.10;;;11.30;99.90;;;;;;5061837;28;20045;-74
2023/06/01 03:01:04;;;;;;;12.15;3.30;;;11.20;99.90;;;;;;5065380;28;20126;-75
2023/06/01 03:03:30;;;;;;;11.88;3.17;;;11.20;99.90;;;;;;5060235;28;20059;-75
2023/06/01 03:05:57;;;;;;;8.95;3.05;;;11.20;99.90;;;;;;5054610;28;20485;-74
2023/06/01 03:08:24;;;;;;;;;;;11.20;99.90;;;;;;5058701;28;20176;-75
2023/06/01 03:10:50;;;;;;;;;;;11.30;99.90;;;;;;5060447;28;19924;-75
2023/06/01 03:13:15;;;;;;;;;;;11.20;99.90;;;;;;5044899;28;20276;-75
2023/06/01 03:15:41;;;;;;;;;;;11.60;99.90;;;;;;5056165;28;19956;-72
2023/06/01 03:18:08;;;;;;;;;;;11.20;99.90;;;;;;5062184;28;20269;-74
2023/06/01 03:20:34;;;;;;;;;;;11.20;99.90;;;;;;5064588;28;19920;-75
2023/06/01 03:23:00;;;;;;;;;;;11.20;99.90;;;;;;5055230;28;20273;-75
2023/06/01 03:25:25;;;;;;;;;;;11.20;99.90;;;;;;5055702;28;19931;-75
2023/06/01 03:27:51;;;;;;;10.48;3.20;;;11.30;99.90;;;;;;5059703;28;19930;-75
2023/06/01 03:30:17;;;;;;;10.68;3.50;;;11.20;99.90;;;;;;5065646;28;20106;-75
2023/06/01 03:32:44;;;;;;;10.15;3.28;;;11.40;99.90;;;;;;5050165;28;20060;-75
2023/06/01 03:35:11;;;;;;;14.50;3.65;;;11.20;99.90;;;;;;5062697;28;20086;-74
2023/06/01 03:37:37;;;;;;;;;;;11.20;99.90;;;;;;5060024;28;20053;-75
2023/06/01 03:40:10;;;;;;;;;;;11.20;99.90;;;;;;5060882;28;20346;-75
2023/06/01 03:42:42;;;;;;;;;;;11.20;99.90;;;;;;5063130;28;19957;-74
2023/06/01 03:45:08;;;;;;;;;;;11.20;99.90;;;;;;5061909;28;19916;-73
2023/06/01 03:47:34;;;;;;;;;;;11.20;99.90;;;;;;5059988;28;19931;-74
2023/06/01 03:50:01;;;;;;;;;;;11.20;99.90;;;;;;5062258;28;19920;-75
2023/06/01 03:52:27;;;;;;;;;;;11.30;99.90;;;;;;5055764;28;20011;-75
2023/06/01 03:54:52;;;;;;;;;;;11.20;99.90;;;;;;5068882;28;20417;-75
2023/06/01 03:57:18;;;;;;;;;;;11.20;99.90;;;;;;5060728;28;19972;-74
2023/06/01 03:59:44;;;;;;;;;;;11.20;99.90;;;;;;5060360;28;20015;-75
2023/06/01 04:02:10;;;;;;;;;;;11.20;99.90;;;;;;5062517;28;19986;-74
2023/06/01 04:04:35;;;;;;;;;;;11.20;99.90;;;;;;5060758;28;20355;-75
2023/06/01 04:07:02;;;;;;;;;;;11.30;99.90;;;;;;5057208;28;20015;-75
2023/06/01 04:09:29;;;;;;;;;;;11.20;99.90;;;;;;5059304;28;20256;-74
2023/06/01 04:11:55;;;;;;;;;;;11.20;99.90;;;;;;5059485;28;19935;-74
2023/06/01 04:14:20;;;;;;;;;;;11.30;99.90;;;;;;5060683;28;19928;-74
2023/06/01 04:16:46;;;;;;;;;;;11.30;99.90;;;;;;5060258;28;19978;-75
2023/06/01 04:19:12;;;;;;;;;;;11.30;99.90;;;;;;5055038;28;19963;-74
2023/06/01 04:21:37;;;;;;;;;;;11.30;99.90;;;;;;5054873;28;20398;-75
2023/06/01 04:24:03;;;;;;;;;;;11.30;99.90;;;;;;5051819;28;19968;-74
2023/06/01 04:26:31;;;;;;;;;;;11.30;99.90;;;;;;5058564;28;19929;-75
2023/06/01 04:28:57;;;;;;;;;;;11.30;99.90;;;;;;5055516;28;19924;-76
2023/06/01 04:31:23;;;;;;;;;;;11.30;99.90;;;;;;5061962;28;20430;-75
2023/06/01 04:33:52;;;;;;;;;;;11.30;99.90;;;;;;5063227;28;20061;-76
2023/06/01 04:36:22;;;;;;;;;;;11.30;99.90;;;;;;5062726;28;19920;-74
2023/06/01 04:38:51;;;;;;;;;;;11.30;99.90;;;;;;5055503;28;19925;-73
2023/06/01 04:41:17;;;;;;;;;;;11.50;99.90;;;;;;5053127;28;20043;-75
2023/06/01 04:43:42;;;;;;;;;;;11.30;99.90;;;;;;5058807;28;20591;-75
2023/06/01 04:46:08;;;;;;;;;;;11.40;99.90;;;;;;5056819;28;19927;-73
2023/06/01 04:48:34;;;;;;;;;;;11.30;99.90;;;;;;5058925;28;19928;-74
2023/06/01 04:50:59;;;;;;;;;;;11.30;99.90;;;;;;5061504;28;19943;-74
2023/06/01 04:53:26;;;;;;;;;;;11.30;99.90;;;;;;5061562;28;19924;-75
2023/06/01 04:55:53;;;;;;;;;;;11.30;99.90;;;;;;5057550;28;20627;-75
2023/06/01 04:58:19;;;;;;;;;;;11.30;99.90;;;;;;5056367;28;21162;-74
2023/06/01 05:00:45;;;;;;;;;;;11.30;99.90;;;;;;5058560;28;20005;-75
2023/06/01 05:03:12;;;;;;;;;;;11.30;99.90;;;;;;5061177;28;19928;-74
2023/06/01 05:05:37;;;;;;;;;;;11.40;99.90;;;;;;5056423;28;19994;-75
2023/06/01 05:08:03;;;;;;;;;;;11.40;99.90;;;;;;5059883;28;19924;-74
2023/06/01 05:10:29;;;;;;;;;;;11.40;99.90;;;;;;5052244;28;20006;-74
2023/06/01 05:12:55;;;;;;;;;;;11.40;99.90;;;;;;5059482;28;20402;-74
2023/06/01 05:15:20;;;;;;;;;;;11.40;99.90;;;;;;5063897;28;19924;-75
2023/06/01 05:17:47;;;;;;;;;;;11.40;99.90;;;;;;5057623;28;19994;-74
2023/06/01 05:20:13;;;;;;;;;;;11.40;99.90;;;;;;5059155;28;19932;-74
2023/06/01 05:22:38;;;;;;;;;;;11.40;99.90;;;;;;5060727;28;19924;-74
2023/06/01 05:25:07;;;;;;;;;;;11.50;99.90;;;;;;5055931;28;20310;-74
2023/06/01 05:27:33;;;;;;;;;;;11.50;99.90;;;;;;5058746;28;20379;-75
2023/06/01 05:29:59;;;;;;;;;;;11.50;99.90;;;;;;5057823;28;19930;-73
2023/06/01 05:32:25;;;;;;;;;;;11.60;99.90;;;;;;5050020;28;19921;-74
2023/06/01 05:34:50;;;;;;;;;;;11.50;99.90;;;;;;5058079;28;19927;-74
2023/06/01 05:37:16;;;;;;;;;;;11.50;99.90;;;;;;5061538;28;19937;-75
2023/06/01 05:39:41;;;;;;;;;;;11.70;99.90;;;;;;5067165;28;20401;-75
2023/06/01 05:42:07;;;;;;;;;;;11.50;99.90;;;;;;5058771;28;19927;-75
2023/06/01 05:44:32;;;;;;;;;;;11.50;99.90;;;;;;5082358;28;19927;-75
2023/06/01 05:46:58;;;;;;;;;;;11.50;99.90;;;;;;5056796;28;19927;-76
2023/06/01 05:49:23;;;;;;;;;;;11.50;99.90;;;;;;5057640;28;19967;-76
2023/06/01 05:51:49;;;;;;;;;;;11.50;99.90;;;;;;5035317;28;19986;-74
2023/06/01 05:54:15;;;;;;;;;;;11.60;99.90;;;;;;5055395;28;19924;-75
2023/06/01 05:56:40;;;;;;;;;;;11.60;99.90;;;;;;5061125;28;20345;-75
2023/06/01 05:59:06;;;;;;;;;;;11.70;99.90;;;;;;5057695;28;20337;-76
2023/06/01 06:01:32;;;;;;;;;;;11.60;99.90;;;;;;5060360;28;19924;-75
2023/06/01 06:03:57;;;;;;;;;;;11.80;99.90;;;;;;5050132;28;20268;-75
2023/06/01 06:06:23;;;;;;;;;;;11.80;99.90;;;;;;5073040;28;19924;-73
2023/06/01 06:08:49;;;;;;;;;;;11.80;99.90;;;;;;5056090;28;20358;-75
2023/06/01 06:11:15;;;;;;;;;;;11.80;99.90;;;;;;5055772;28;20504;-75
2023/06/01 06:13:40;;;;;;;;;;;11.90;99.90;;;;;;5045622;28;20016;-74
2023/06/01 06:16:06;;;;;;;;;;;11.90;99.90;;;;;;5040930;28;20078;-74
2023/06/01 06:18:31;;;;;;;;;;;11.90;99.90;;;;;;5061361;28;19925;-74
2023/06/01 06:20:57;;;;;;;;;;;11.90;99.90;;;;;;5060999;28;19969;-74
2023/06/01 06:23:23;;;;;;;;;;;11.90;99.90;;;;;;5056883;28;19928;-75
2023/06/01 06:25:48;;;;;;;;;;;12.00;99.90;;;;;;5060007;28;20003;-74
2023/06/01 06:28:15;;;;;;;;;;;12.00;99.90;;;;;;5057999;28;20018;-74
2023/06/01 06:30:40;;;;;;;;;;;12.00;99.90;;;;;;5051299;28;19956;-75
2023/06/01 06:33:06;;;;;;;;;;;12.00;99.90;;;;;;5057800;28;20455;-73
2023/06/01 06:35:31;;;;;;;;;;;12.00;99.90;;;;;;5058560;28;19929;-76
2023/06/01 06:37:57;;;;;;;;;;;12.00;99.90;;;;;;5055419;28;19924;-74
2023/06/01 06:40:22;;;;;;;;;;;12.00;99.90;;;;;;5061711;28;19969;-74
2023/06/01 06:42:50;;;;;;;;;;;12.10;99.90;;;;;;5050854;28;19921;-74
2023/06/01 06:45:16;;;;;;;;;;;12.10;99.90;;;;;;5059869;28;19946;-75
2023/06/01 06:47:41;;;;;;;;;;;12.10;99.90;;;;;;5061845;28;19920;-75
2023/06/01 06:50:07;;;;;;;;;;;12.10;99.90;;;;;;5051421;28;19931;-74
2023/06/01 06:52:33;;;;;;;;;;;12.10;99.90;;;;;;5058405;28;19925;-74
2023/06/01 06:54:58;;;;;;;;;;;12.10;99.90;;;;;;5069571;28;19925;-74
2023/06/01 06:57:24;;;;;;;;;;;12.20;99.90;;;;;;5060382;28;20078;-73
2023/06/01 06:59:50;;;;;;;;;;;12.20;99.90;;;;;;5063466;28;19924;-74
2023/06/01 07:02:16;;;;;;;;;;;12.20;99.90;;;;;;5058480;28;19920;-74
2023/06/01 07:04:42;;;;;;;;;;;12.20;99.90;;;;;;5063002;28;19955;-75
2023/06/01 07:07:07;;;;;;;;;;;12.10;99.90;;;;;;5055516;28;20485;-75
2023/06/01 07:09:33;;;;;;;;;;;12.10;99.90;;;;;;5061324;28;20334;-74
2023/06/01 07:11:58;;;;;;;;;;;12.10;99.90;;;;;;5062760;28;20300;-73
2023/06/01 07:14:24;;;;;;;;;;;12.20;99.90;;;;;;5062899;28;20383;-75
2023/06/01 07:16:50;;;;;;;;;;;12.20;99.90;;;;;;5062846;28;19967;-74
2023/06/01 07:19:16;;;;;;;;;;;12.20;99.90;;;;;;5063848;28;20612;-75
2023/06/01 07:21:42;;;;;;;;;;;12.30;99.90;;;;;;5053817;28;19939;-73
2023/06/01 07:24:08;;;;;;;;;;;12.30;99.90;;;;;;5058394;28;19928;-72
2023/06/01 07:26:33;;;;;;;;;;;12.40;99.90;;;;;;5067422;28;20082;-74
2023/06/01 07:28:59;;;;;;;;;;;12.30;99.90;;;;;;5063085;28;20051;-72
2023/06/01 07:31:27;;;;;;;;;;;12.40;99.90;;;;;;5060305;28;19950;-75
2023/06/01 07:33:55;;;;;;;;;;;12.40;99.90;;;;;;5063342;28;20010;-74
2023/06/01 07:36:23;;;;;;;;;;;12.40;99.90;;;;;;5061238;28;19924;-75
2023/06/01 07:38:49;;;;;;;;;;;12.40;99.90;;;;;;5061080;28;19921;-74
2023/06/01 07:41:14;;;;;;;;;;;12.40;99.90;;;;;;5059193;28;19925;-74
2023/06/01 07:43:40;;;;;;;;;;;12.50;99.90;;;;;;5063567;28;20448;-76
2023/06/01 07:46:05;;;;;;;;;;;12.50;99.90;;;;;;5063826;28;19924;-74
2023/06/01 07:48:37;;;;;;;;;;;12.60;99.90;;;;;;5061192;28;19935;-75
2023/06/01 07:51:03;;;;;;;;;;;12.60;99.90;;;;;;5042267;28;19935;-75
2023/06/01 07:53:29;;;;;;;;;;;12.60;99.90;;;;;;5060568;28;20015;-74
2023/06/01 07:55:55;;;;;;;;;;;12.70;99.90;;;;;;5052012;28;20392;-74
2023/06/01 07:58:20;;;;;;;;;;;12.70;99.90;;;;;;5059926;28;19921;-75
2023/06/01 08:00:46;;;;;;;;;;;12.80;99.90;;;;;;5077168;28;19963;-74
2023/06/01 08:03:11;;;;;;;;;;;12.80;99.90;;;;;;5058424;28;19971;-74
2023/06/01 08:05:37;;;;;;;;;;;12.90;99.90;;;;;;5066341;28;19971;-75
2023/06/01 08:08:03;;;;;;;;;;;12.90;99.90;;;;;;5066432;28;20288;-74
2023/06/01 08:10:29;;;;;;;;;;;13.10;99.90;;;;;;5056473;28;20367;-75
2023/06/01 08:12:57;;;;;;;;;;;13.30;99.90;;;;;;5062129;28;20013;-76
2023/06/01 08:15:23;;;;;;;;;;;13.30;99.90;;;;;;5058563;28;20413;-76
2023/06/01 08:17:50;;;;;;;;;;;13.30;99.90;;;;;;5064770;28;19997;-76
2023/06/01 08:20:20;;;;;;;;;;;13.20;99.90;;;;;;5063391;28;20011;-76
2023/06/01 08:22:46;;;;;;;;;;;13.30;99.90;;;;;;5063708;28;19994;-75
2023/06/01 08:25:12;;;;;;;;;;;13.10;99.90;;;;;;5056409;28;20343;-75
2023/06/01 08:27:38;;;;;;;;;;;13.10;99.90;;;;;;5062524;28;20031;-74
2023/06/01 08:30:04;;;;;;;;;;;13.10;99.90;;;;;;5062437;28;20053;-74
2023/06/01 08:32:29;;;;;;;;;;;13.10;99.90;;;;;;5059081;28;19920;-74
2023/06/01 08:34:55;;;;;;;;;;;13.10;99.90;;;;;;5058663;28;20037;-75
2023/06/01 08:37:20;;;;;;;;;;;13.20;99.90;;;;;;5059764;28;19990;-76
2023/06/01 08:39:46;;;;;;;;;;;13.10;99.90;;;;;;5063425;28;19920;-75
2023/06/01 08:42:25;;;;;;;;;;;13.10;99.90;;;;;;5062508;28;19935;-76
2023/06/01 08:44:53;;;;;;;;;;;13.00;99.90;;;;;;5051867;28;20390;-75
2023/06/01 08:47:19;;;;;;;;;;;13.00;99.90;;;;;;5059158;28;20404;-75
2023/06/01 08:49:45;;;;;;;;;;;13.00;99.90;;;;;;5061323;28;19920;-75
2023/06/01 08:52:18;;;;;;;;;;;13.00;99.90;;;;;;5061849;28;20023;-75
2023/06/01 08:54:43;;;;;;;;;;;13.00;99.90;;;;;;5051868;28;20376;-75
2023/06/01 08:57:10;;;;;;;;;;;13.00;99.90;;;;;;5065170;28;19932;-76
2023/06/01 08:59:36;;;;;;;;;;;12.90;99.90;;;;;;5059797;28;19920;-76
2023/06/01 09:02:02;;;;;;;;;;;12.90;99.90;;;;;;5062721;28;19961;-77
2023/06/01 09:04:27;;;;;;;;;;;12.90;99.90;;;;;;5045015;28;19924;-77
2023/06/01 09:06:53;;;;;;;;;;;12.90;99.90;;;;;;5060823;28;20270;-76
2023/06/01 09:09:19;;;;;;;;;;;12.90;99.90;;;;;;5054099;28;20379;-78
2023/06/01 09:11:44;;;;;;;;;;;13.00;99.90;;;;;;5059416;28;20080;-75
2023/06/01 09:14:23;;;;;;;;;;;13.00;99.90;;;;;;5060609;28;20289;-74
2023/06/01 09:16:50;;;;;;;;;;;13.10;99.90;;;;;;5057118;28;19932;-74
2023/06/01 09:19:15;;;;;;;;;;;12.90;99.90;;;;;;5058614;28;20275;-75
2023/06/01 09:21:57;;;;;;;;;;;13.00;99.90;;;;;;5041653;28;19979;-74
2023/06/01 09:24:23;;;;;;;;;;;13.10;99.90;;;;;;5060968;28;20387;-75
2023/06/01 09:26:49;;;;;;;;;;;13.10;99.90;;;;;;5054545;28;19924;-75
2023/06/01 09:29:16;;;;;;;;;;;13.10;99.90;;;;;;5059037;28;21600;-74
2023/06/01 09:31:45;;;;;;;;;;;13.20;99.90;;;;;;5060871;28;19920;-75
2023/06/01 09:34:20;;;;;;;;;;;13.20;99.90;;;;;;5061030;28;19920;-75
2023/06/01 09:36:50;;;;;;;;;;;13.20;99.90;;;;;;5058184;28;19921;-74
2023/06/01 09:39:17;;;;;;;;;;;13.20;99.90;;;;;;5056139;28;20360;-74
2023/06/01 09:41:48;;;;;;;;;;;13.20;99.90;;;;;;5061537;28;19931;-75
2023/06/01 09:44:21;;;;;;;;;;;13.20;99.90;;;;;;5062400;28;19932;-74
2023/06/01 09:46:48;;;;;;;;;;;13.30;99.90;;;;;;5066759;28;20000;-73
2023/06/01 09:49:24;;;;;;;;;;;13.30;99.90;;;;;;5074252;28;20436;-74
2023/06/01 09:52:07;;;;;;;;;;;13.30;99.90;;;;;;5059591;28;19924;-74
2023/06/01 09:54:46;;;;;;;;;;;13.30;99.90;;;;;;5061880;28;20028;-75
2023/06/01 09:57:12;;;;;;;;;;;13.30;99.90;;;;;;5058890;28;20433;-74
2023/06/01 09:59:46;;;;;;;;;;;13.20;99.90;;;;;;5054369;28;20018;-76
2023/06/01 10:02:20;;;;;;;;;;;13.30;99.90;;;;;;5058245;28;20291;-75
2023/06/01 10:04:50;;;;;;;;;;;13.30;99.90;;;;;;5059801;28;19987;-75
2023/06/01 10:07:16;;;;;;;;;;;13.30;99.90;;;;;;5061940;28;19924;-76
2023/06/01 10:09:44;;;;;;;;;;;13.40;99.90;;;;;;5056042;28;20030;-73
2023/06/01 10:12:10;;;;;;;;;;;13.40;99.90;;;;;;5061873;28;20379;-75
2023/06/01 10:14:37;;;;;;;;;;;13.40;99.90;;;;;;5056049;28;19931;-74
2023/06/01 10:17:02;;;;;;;;;;;13.40;99.90;;;;;;5078764;28;20049;-74
2023/06/01 10:19:29;;;;;;;;;;;13.50;99.90;;;;;;5054756;28;19939;-74
2023/06/01 10:21:56;;;;;;;;;;;13.50;99.90;;;;;;5056795;28;19921;-73
2023/06/01 10:24:22;;;;;;;;;;;13.60;99.90;;;;;;5065280;28;19924;-75
2023/06/01 10:27:05;;;;;;;;;;;13.60;99.90;;;;;;5081936;28;20007;-73
2023/06/01 10:29:31;;;;;;;;;;;13.60;99.90;;;;;;5044931;28;19945;-73
2023/06/01 10:31:57;;;;;;;;;;;13.60;99.90;;;;;;5066394;28;19921;-73
2023/06/01 10:34:42;;;;;;;;;;;13.70;99.90;;;;;;5063420;28;20009;-74
2023/06/01 10:37:08;;;;;;;;;;;13.70;99.90;;;;;;5065581;28;19924;-73
2023/06/01 10:39:33;;;;;;;;;;;13.70;99.90;;;;;;5063155;28;19928;-74
2023/06/01 10:42:14;;;;;;;;;;;13.80;99.90;;;;;;5062629;28;20011;-74
2023/06/01 10:44:40;;;;;;;;;;;14.00;99.90;;;;;;5062844;28;19974;-74
2023/06/01 10:47:06;;;;;;;;;;;14.00;99.90;;;;;;5062414;28;19956;-73
2023/06/01 10:49:47;;;;;;;;;;;14.00;99.90;;;;;;5063062;28;20410;-71
2023/06/01 10:52:27;;;;;;;;;;;14.00;99.90;;;;;;5057091;28;19929;-74
2023/06/01 10:54:53;;;;;;;;;;;14.10;99.90;;;;;;5040659;28;19925;-74
2023/06/01 10:57:21;;;;;;;;;;;14.10;99.90;;;;;;5065434;28;19974;-75
2023/06/01 11:00:05;;;;;;;;;;;14.10;99.90;;;;;;5062401;28;20279;-73
2023/06/01 11:02:30;;;;;;;;;;;14.20;99.90;;;;;;5061061;28;20334;-73
2023/06/01 11:05:16;;;;;;;;;;;14.10;99.90;;;;;;5058999;28;19925;-73
2023/06/01 11:07:41;;;;;;;;;;;14.20;99.90;;;;;;5067275;28;20564;-72
2023/06/01 11:10:08;;;;;;;;;;;14.30;99.90;;;;;;5060425;28;19925;-73
2023/06/01 11:12:55;;;;;;;;;;;14.40;99.90;;;;;;5060207;28;19943;-75
2023/06/01 11:15:21;;;;;;;;;;;14.30;99.90;;;;;;5059960;28;20360;-75
2023/06/01 11:17:47;;;;;;;;;;;14.40;99.90;;;;;;5060223;28;20269;-76
2023/06/01 11:20:13;;;;;;;;;;;14.40;99.90;;;;;;5062897;28;19931;-73
2023/06/01 11:22:39;;;;;;;;;;;14.40;99.90;;;;;;5062915;28;19942;-74
2023/06/01 11:25:07;;;;;;;;;;;14.50;99.90;;;;;;5060174;28;19921;-74
2023/06/01 11:27:33;;;;;;;;;;;14.50;99.90;;;;;;5064703;28;20429;-74
2023/06/01 11:29:59;;;;;;;;;;;14.50;99.90;;;;;;5063678;28;19920;-73
2023/06/01 11:32:26;;;;;;;;;;;14.40;99.90;;;;;;5043295;28;20018;-75
2023/06/01 11:34:53;;;;;;;;;;;14.40;99.90;;;;;;5056844;28;19920;-76
2023/06/01 11:37:19;;;;;;;;;;;14.40;99.90;;;;;;5063401;28;20343;-74
2023/06/01 11:39:46;;;;;;;;;;;14.50;99.90;;;;;;5060043;28;20256;-75
2023/06/01 11:42:17;;;;;;;;;;;14.50;99.90;;;;;;5061422;28;19925;-76
2023/06/01 11:44:46;;;;;;;;;;;14.50;99.90;;;;;;5066727;28;19928;-75
2023/06/01 11:47:12;;;;;;;;;;;14.50;99.90;;;;;;5057692;28;20454;-73
2023/06/01 11:49:56;;;;;;;;;;;14.40;99.90;;;;;;5059738;28;19947;-75
2023/06/01 11:52:22;;;;;;;;;;;14.60;99.90;;;;;;5060627;28;19921;-75
2023/06/01 11:54:48;;;;;;;;;;;14.50;99.90;;;;;;5058941;28;19931;-75
2023/06/01 11:57:14;;;;;;;;;;;14.40;99.90;;;;;;5060074;28;19924;-74
2023/06/01 11:59:40;;;;;;;;;;;14.50;99.90;;;;;;5062273;28;19925;-75
2023/06/01 12:02:21;;;;;;;;;;;14.50;99.90;;;;;;5059876;28;20542;-75
2023/06/01 12:05:06;;;;;;;;;;;14.60;99.90;;;;;;5062258;28;19920;-75
2023/06/01 12:07:43;;;;;;;;;;;14.50;99.90;;;;;;5060075;28;19921;-74
2023/06/01 12:10:09;;;;;;;;;;;14.70;99.90;;;;;;5054165;28;20326;-75
2023/06/01 12:12:36;;;;;;;;;;;14.80;99.90;;;;;;5060221;28;19920;-76
2023/06/01 12:15:02;;;;;;;;;;;14.60;99.90;;;;;;5060222;28;19927;-74
2023/06/01 12:17:45;;;;;;;;;;;14.70;99.90;;;;;;5063359;28;19920;-73
2023/06/01 12:20:10;;;;;;;;;;;14.70;99.90;;;;;;5047915;28;20028;-73
2023/06/01 12:22:36;;;;;;;;;;;14.80;99.90;;;;;;5061618;28;20369;-74
2023/06/01 12:25:08;;;;;;;;;;;14.60;99.90;;;;;;5061004;28;20239;-74
2023/06/01 12:27:36;;;;;;;;;;;14.70;99.90;;;;;;5060186;28;20326;-73
2023/06/01 12:30:02;;;;;;;;;;;14.60;99.90;;;;;;5057195;28;19947;-74
2023/06/01 12:32:37;;;;;;;;;;;14.50;99.90;;;;;;5061161;28;19928;-75
2023/06/01 12:35:03;;;;;;;;;;;14.50;99.90;;;;;;5054341;28;19967;-74
2023/06/01 12:37:29;;;;;;;;;;;14.50;99.90;;;;;;5061129;28;19927;-72
2023/06/01 12:40:00;;;;;;;;;;;14.40;99.90;;;;;;5062179;28;20007;-73
2023/06/01 12:42:39;;;;;;;;;;;14.50;99.90;;;;;;5061303;28;19924;-73
2023/06/01 12:45:08;;;;;;;;;;;14.50;99.90;;;;;;5058037;28;20216;-72
2023/06/01 12:47:40;;;;;;;;;;;14.50;99.90;;;;;;5060265;28;20362;-72
2023/06/01 12:50:10;;;;;;;;;;;14.60;99.90;;;;;;5062609;28;19920;-74
2023/06/01 12:52:36;;;;;;;;;;;14.60;99.90;;;;;;5060971;28;19925;-73
2023/06/01 12:55:03;;;;;;;;;;;14.50;99.90;;;;;;5059207;28;19932;-75
2023/06/01 12:57:30;;;;;;;;;;;14.60;99.90;;;;;;5064796;28;19927;-75
2023/06/01 12:59:56;;;;;;;;;;;14.60;99.90;;;;;;5059399;28;19956;-75
2023/06/01 13:02:21;;;;;;;;;;;14.50;99.90;;;;;;5059287;28;20458;-73
2023/06/01 13:04:47;;;;;;;;;;;14.60;99.90;;;;;;5046445;28;20319;-72
2023/06/01 13:07:13;;;;;;;12.38;2.83;;;14.50;99.90;;;;;;5053320;28;19970;-74
2023/06/01 13:09:39;;;;;;;;;;;14.50;99.90;;;;;;5060987;28;20341;-73
2023/06/01 13:12:05;;;;;;;;;;;14.40;99.90;;;;;;5049921;28;19925;-74
2023/06/01 13:14:30;;;;;;;;;;;14.40;99.90;;;;;;5063325;28;19974;-74
2023/06/01 13:16:56;;;;;;;;;;;14.40;99.90;;;;;;5059591;28;19925;-74
2023/06/01 13:19:25;;;;;;;;;;;14.50;99.90;;;;;;5063392;28;20007;-73
2023/06/01 13:21:50;;;;;;;;;;;14.50;99.90;;;;;;5058974;28;19926;-74
2023/06/01 13:24:16;;;;;;;;;;;14.40;99.90;;;;;;5061399;28;19955;-74
2023/06/01 13:26:42;;;;;;;;;;;14.40;99.90;;;;;;5042557;28;20302;-74
2023/06/01 13:29:09;;;;;;;;;;;14.50;99.90;;;;;;5059732;28;19924;-72
2023/06/01 13:31:35;;;;;;;;;;;14.50;99.90;;;;;;5058790;28;20016;-74
2023/06/01 13:34:01;;;;;;;;;;;14.60;99.90;;;;;;5057569;28;20054;-73
2023/06/01 13:36:26;;;;;;;;;;;14.60;99.90;;;;;;5060243;28;20019;-74
2023/06/01 13:38:52;;;;;;;;;;;14.60;99.90;;;;;;5060100;28;19943;-74
2023/06/01 13:41:17;;;;;;;;;;;14.60;99.90;;;;;;5054356;28;20284;-74
2023/06/01 13:43:43;;;;;;;;;;;14.60;99.90;;;;;;5060841;28;20284;-73
2023/06/01 13:46:09;;;;;;;;;;;14.60;99.90;;;;;;5060391;28;20264;-73
2023/06/01 13:48:35;;;;;;;;;;;14.60;99.90;;;;;;5058231;28;19927;-74
2023/06/01 13:51:01;;;;;;;;;;;14.60;99.90;;;;;;5057492;28;19984;-72
2023/06/01 13:53:26;;;;;;;;;;;14.60;99.90;;;;;;5058220;28;20020;-72